Time;durP1;ratioP1;P1;durP2;ratioP2;P2;SDS_P1;SDS_P2;PMS_P1;PMS_P2;Temp;Humidity;BMP_temperature;BMP_pressure;BME280_temperature;BME280_humidity;BME280_pressure;Samples;Min_cycle;Max_cycle;Signal;HPM_P1;HPM_P2
2022/02/19 00:00:49;;;;;;;0.50;0.50;;;;;;;;;;5014942;28;20173;-63
2022/02/19 00:03:15;;;;;;;0.40;0.40;;;;;;;;;;5014749;28;20213;-62
2022/02/19 00:05:41;;;;;;;0.50;0.50;;;;;;;;;;5014597;28;20261;-63
2022/02/19 00:08:08;;;;;;;0.50;0.50;;;;;;;;;;5023899;28;20419;-62
2022/02/19 00:10:34;;;;;;;0.50;0.50;;;;;;;;;;5034342;28;20969;-62
2022/02/19 00:13:00;;;;;;;0.50;0.50;;;;;;;;;;5018696;28;20197;-63
2022/02/19 00:15:26;;;;;;;0.43;0.43;;;;;;;;;;5014850;28;20415;-63
2022/02/19 00:17:54;;;;;;;0.50;0.50;;;;;;;;;;5014883;28;20443;-62
2022/02/19 00:20:20;;;;;;;0.50;0.50;;;;;;;;;;5014506;28;20176;-63
2022/02/19 00:22:45;;;;;;;0.50;0.50;;;;;;;;;;5014409;28;20579;-63
2022/02/19 00:25:11;;;;;;;0.50;0.50;;;;;;;;;;5030677;28;20412;-63
2022/02/19 00:27:37;;;;;;;0.50;0.50;;;;;;;;;;5034329;28;20415;-62
2022/02/19 00:30:05;;;;;;;0.50;0.50;;;;;;;;;;5034308;28;20423;-63
2022/02/19 00:32:31;;;;;;;0.50;0.50;;;;;;;;;;5034175;28;20423;-63
2022/02/19 00:34:56;;;;;;;0.50;0.50;;;;;;;;;;5034228;28;20196;-62
2022/02/19 00:37:22;;;;;;;0.50;0.50;;;;;;;;;;5033190;28;20173;-62
2022/02/19 00:39:48;;;;;;;0.50;0.50;;;;;;;;;;5034444;28;20403;-62
2022/02/19 00:42:14;;;;;;;0.50;0.50;;;;;;;;;;5034423;28;20477;-63
2022/02/19 00:44:40;;;;;;;0.60;0.60;;;;;;;;;;5034023;28;20434;-63
2022/02/19 00:47:06;;;;;;;0.50;0.50;;;;;;;;;;5034108;28;20442;-63
2022/02/19 00:49:32;;;;;;;0.50;0.50;;;;;;;;;;5033879;28;20180;-63
2022/02/19 00:51:58;;;;;;;0.50;0.50;;;;;;;;;;5033613;28;20212;-63
2022/02/19 00:54:24;;;;;;;0.40;0.40;;;;;;;;;;5033766;28;20663;-63
2022/02/19 00:56:51;;;;;;;0.50;0.50;;;;;;;;;;5033883;28;20411;-62
2022/02/19 00:59:17;;;;;;;0.50;0.50;;;;;;;;;;5033836;28;20403;-63
2022/02/19 01:01:43;;;;;;;0.47;0.47;;;;;;;;;;5017594;28;20645;-62
2022/02/19 01:04:09;;;;;;;0.50;0.50;;;;;;;;;;5013747;28;20264;-63
2022/02/19 01:06:35;;;;;;;0.50;0.50;;;;;;;;;;5013927;28;20475;-62
2022/02/19 01:09:01;;;;;;;0.40;0.40;;;;;;;;;;5013741;28;20193;-62
2022/02/19 01:11:27;;;;;;;0.50;0.50;;;;;;;;;;5013596;28;20209;-63
2022/02/19 01:13:53;;;;;;;0.50;0.50;;;;;;;;;;5013472;28;20202;-63
2022/02/19 01:16:19;;;;;;;0.50;0.50;;;;;;;;;;5013502;28;20193;-63
2022/02/19 01:18:45;;;;;;;0.50;0.50;;;;;;;;;;5013230;28;20188;-63
2022/02/19 01:21:11;;;;;;;0.50;0.50;;;;;;;;;;5015059;28;20268;-63
2022/02/19 01:23:37;;;;;;;0.50;0.50;;;;;;;;;;5051000;23;20773;-60
2022/02/19 01:26:03;;;;;;;0.40;0.40;;;;;;;;;;5013514;28;20906;-60
2022/02/19 01:28:30;;;;;;;0.60;0.60;;;;;;;;;;5013194;28;20435;-60
2022/02/19 01:30:57;;;;;;;0.50;0.50;;;;;;;;;;5012937;28;20578;-60
2022/02/19 01:33:23;;;;;;;0.50;0.50;;;;;;;;;;5016114;28;20541;-62
2022/02/19 01:35:49;;;;;;;0.50;0.50;;;;;;;;;;5032799;28;20173;-60
2022/02/19 01:38:15;;;;;;;0.50;0.50;;;;;;;;;;5015071;28;20488;-60
2022/02/19 01:40:41;;;;;;;0.50;0.50;;;;;;;;;;5032618;28;20787;-61
2022/02/19 01:43:10;;;;;;;0.50;0.50;;;;;;;;;;5032748;28;20453;-60
2022/02/19 01:45:36;;;;;;;0.50;0.50;;;;;;;;;;5033067;28;20551;-62
2022/02/19 01:48:02;;;;;;;0.50;0.50;;;;;;;;;;5032476;28;20169;-60
2022/02/19 01:50:28;;;;;;;0.50;0.50;;;;;;;;;;5032230;28;20631;-61
2022/02/19 01:52:54;;;;;;;0.40;0.40;;;;;;;;;;5036544;28;20218;-59
2022/02/19 01:55:21;;;;;;;0.50;0.50;;;;;;;;;;5032358;28;20455;-58
2022/02/19 01:57:47;;;;;;;0.50;0.50;;;;;;;;;;5032506;28;20263;-60
2022/02/19 02:00:14;;;;;;;0.50;0.50;;;;;;;;;;5032285;28;20486;-61
2022/02/19 02:02:42;;;;;;;0.47;0.47;;;;;;;;;;5032310;28;20184;-60
2022/02/19 02:05:08;;;;;;;0.50;0.50;;;;;;;;;;5032377;28;20261;-60
2022/02/19 02:07:34;;;;;;;0.50;0.50;;;;;;;;;;5014594;28;20283;-61
2022/02/19 02:10:00;;;;;;;0.40;0.40;;;;;;;;;;5032269;28;20651;-61
2022/02/19 02:12:27;;;;;;;0.50;0.50;;;;;;;;;;5031375;28;20208;-62
2022/02/19 02:14:53;;;;;;;0.50;0.50;;;;;;;;;;5032011;28;20202;-62
2022/02/19 02:17:19;;;;;;;0.50;0.50;;;;;;;;;;5032181;28;20177;-62
2022/02/19 02:19:45;;;;;;;0.50;0.50;;;;;;;;;;5032095;28;20241;-61
2022/02/19 02:22:14;;;;;;;0.50;0.50;;;;;;;;;;5031854;28;20419;-61
2022/02/19 02:24:40;;;;;;;0.50;0.50;;;;;;;;;;5031844;28;20231;-62
2022/02/19 02:27:12;;;;;;;0.40;0.40;;;;;;;;;;5032039;28;20613;-61
2022/02/19 02:29:45;;;;;;;0.40;0.40;;;;;;;;;;5031522;28;20211;-61
2022/02/19 02:32:11;;;;;;;0.50;0.50;;;;;;;;;;5031498;28;20210;-62
2022/02/19 02:34:50;;;;;;;0.50;0.50;;;;;;;;;;5031824;28;20279;-62
2022/02/19 02:37:17;;;;;;;0.50;0.50;;;;;;;;;;5031722;28;20542;-62
2022/02/19 02:39:43;;;;;;;0.50;0.50;;;;;;;;;;5031536;28;20583;-62
2022/02/19 02:42:09;;;;;;;0.50;0.50;;;;;;;;;;5031117;28;20266;-62
2022/02/19 02:44:39;;;;;;;0.50;0.50;;;;;;;;;;5031657;28;20249;-62
2022/02/19 02:47:06;;;;;;;0.50;0.50;;;;;;;;;;5031605;28;20323;-62
2022/02/19 02:49:32;;;;;;;0.50;0.50;;;;;;;;;;5031482;28;20306;-62
2022/02/19 02:51:57;;;;;;;0.50;0.50;;;;;;;;;;5031293;28;20297;-62
2022/02/19 02:54:23;;;;;;;0.50;0.50;;;;;;;;;;5031363;28;20646;-61
2022/02/19 02:56:49;;;;;;;0.50;0.50;;;;;;;;;;5031403;28;20435;-61
2022/02/19 02:59:15;;;;;;;0.50;0.50;;;;;;;;;;5030956;28;20423;-60
2022/02/19 03:01:41;;;;;;;0.40;0.40;;;;;;;;;;5030717;28;20860;-61
2022/02/19 03:04:07;;;;;;;0.40;0.40;;;;;;;;;;5031091;28;20462;-62
2022/02/19 03:06:33;;;;;;;0.50;0.50;;;;;;;;;;5030827;28;20513;-62
2022/02/19 03:08:59;;;;;;;0.50;0.50;;;;;;;;;;5031101;28;20438;-62
2022/02/19 03:11:25;;;;;;;0.50;0.50;;;;;;;;;;5030870;28;20476;-61
2022/02/19 03:13:51;;;;;;;0.60;0.60;;;;;;;;;;5031629;28;20271;-61
2022/02/19 03:16:17;;;;;;;0.50;0.50;;;;;;;;;;5031056;28;20421;-60
2022/02/19 03:18:43;;;;;;;0.50;0.50;;;;;;;;;;5031247;28;20774;-61
2022/02/19 03:21:09;;;;;;;0.50;0.50;;;;;;;;;;5031256;28;20184;-61
2022/02/19 03:23:35;;;;;;;0.40;0.40;;;;;;;;;;5030444;28;20462;-62
2022/02/19 03:26:01;;;;;;;0.47;0.47;;;;;;;;;;5031586;28;20323;-60
2022/02/19 03:28:28;;;;;;;0.50;0.50;;;;;;;;;;5031380;28;20527;-61
2022/02/19 03:30:54;;;;;;;0.50;0.50;;;;;;;;;;5030896;28;20200;-61
2022/02/19 03:33:20;;;;;;;0.50;0.50;;;;;;;;;;5030919;28;20185;-61
2022/02/19 03:35:46;;;;;;;0.50;0.50;;;;;;;;;;5031402;28;20449;-62
2022/02/19 03:38:12;;;;;;;0.47;0.47;;;;;;;;;;5030753;28;21096;-62
2022/02/19 03:40:38;;;;;;;0.50;0.50;;;;;;;;;;5030256;28;20195;-61
2022/02/19 03:43:04;;;;;;;0.50;0.50;;;;;;;;;;5030773;28;20509;-61
2022/02/19 03:45:30;;;;;;;0.50;0.50;;;;;;;;;;5030625;28;20415;-61
2022/02/19 03:47:56;;;;;;;0.50;0.50;;;;;;;;;;5031138;28;20233;-61
2022/02/19 03:50:22;;;;;;;0.50;0.50;;;;;;;;;;5031003;28;20501;-61
2022/02/19 03:52:48;;;;;;;0.50;0.50;;;;;;;;;;5031130;28;20454;-61
2022/02/19 03:55:14;;;;;;;0.50;0.50;;;;;;;;;;5030449;28;20449;-61
2022/02/19 03:57:39;;;;;;;0.40;0.40;;;;;;;;;;5030998;28;20172;-62
2022/02/19 04:00:06;;;;;;;0.50;0.50;;;;;;;;;;5030472;28;20254;-62
2022/02/19 04:02:32;;;;;;;0.60;0.60;;;;;;;;;;5030881;28;20475;-61
2022/02/19 04:04:58;;;;;;;0.50;0.50;;;;;;;;;;5030625;28;20206;-60
2022/02/19 04:07:24;;;;;;;0.50;0.50;;;;;;;;;;5030670;28;20436;-62
2022/02/19 04:09:50;;;;;;;0.50;0.50;;;;;;;;;;5030345;28;20433;-62
2022/02/19 04:12:16;;;;;;;0.50;0.50;;;;;;;;;;5033114;28;20464;-62
2022/02/19 04:14:42;;;;;;;0.40;0.40;;;;;;;;;;5034173;28;20434;-63
2022/02/19 04:17:08;;;;;;;0.50;0.50;;;;;;;;;;5034239;28;20422;-61
2022/02/19 04:19:34;;;;;;;0.50;0.50;;;;;;;;;;5034106;28;20758;-61
2022/02/19 04:22:00;;;;;;;0.50;0.50;;;;;;;;;;5033933;28;20506;-61
2022/02/19 04:24:26;;;;;;;0.47;0.47;;;;;;;;;;5033812;28;20459;-62
2022/02/19 04:26:52;;;;;;;0.50;0.50;;;;;;;;;;5034067;28;20466;-61
2022/02/19 04:29:18;;;;;;;0.50;0.50;;;;;;;;;;5034036;28;20427;-61
2022/02/19 04:31:44;;;;;;;0.50;0.50;;;;;;;;;;5033650;28;20575;-61
2022/02/19 04:34:09;;;;;;;0.50;0.50;;;;;;;;;;5033679;28;20537;-62
2022/02/19 04:36:35;;;;;;;0.50;0.50;;;;;;;;;;5033284;28;20426;-61
2022/02/19 04:39:01;;;;;;;0.50;0.50;;;;;;;;;;5033548;28;20422;-61
2022/02/19 04:41:27;;;;;;;0.40;0.40;;;;;;;;;;5033278;28;20422;-61
2022/02/19 04:43:53;;;;;;;0.50;0.50;;;;;;;;;;5033609;28;20472;-61
2022/02/19 04:46:19;;;;;;;0.50;0.50;;;;;;;;;;5034184;28;20418;-61
2022/02/19 04:48:45;;;;;;;0.50;0.50;;;;;;;;;;5033827;28;20477;-60
2022/02/19 04:51:11;;;;;;;0.60;0.60;;;;;;;;;;5033280;28;20871;-62
2022/02/19 04:53:37;;;;;;;0.50;0.50;;;;;;;;;;5033837;28;20948;-61
2022/02/19 04:56:03;;;;;;;0.43;0.43;;;;;;;;;;5033469;28;20418;-61
2022/02/19 04:58:29;;;;;;;0.50;0.50;;;;;;;;;;5033863;28;20413;-61
2022/02/19 05:00:55;;;;;;;0.50;0.50;;;;;;;;;;5033525;28;20180;-61
2022/02/19 05:03:21;;;;;;;0.50;0.50;;;;;;;;;;5033834;28;20421;-61
2022/02/19 05:05:47;;;;;;;0.50;0.50;;;;;;;;;;5033761;28;20445;-61
2022/02/19 05:08:13;;;;;;;0.50;0.50;;;;;;;;;;5033645;28;20207;-61
2022/02/19 05:10:39;;;;;;;0.50;0.50;;;;;;;;;;5033442;28;20461;-61
2022/02/19 05:13:05;;;;;;;0.50;0.50;;;;;;;;;;5035355;28;20846;-59
2022/02/19 05:15:31;;;;;;;0.50;0.50;;;;;;;;;;5033496;28;20176;-61
2022/02/19 05:17:58;;;;;;;0.60;0.60;;;;;;;;;;5033463;28;20413;-60
2022/02/19 05:20:24;;;;;;;0.60;0.60;;;;;;;;;;5032912;28;20188;-61
2022/02/19 05:22:51;;;;;;;0.60;0.60;;;;;;;;;;5032271;28;20175;-61
2022/02/19 05:25:17;;;;;;;0.60;0.60;;;;;;;;;;5032784;28;20222;-61
2022/02/19 05:27:43;;;;;;;0.50;0.50;;;;;;;;;;5033116;28;20168;-61
2022/02/19 05:30:10;;;;;;;0.40;0.40;;;;;;;;;;5032998;28;20184;-61
2022/02/19 05:32:36;;;;;;;0.50;0.50;;;;;;;;;;5032913;28;20207;-63
2022/02/19 05:35:02;;;;;;;0.60;0.60;;;;;;;;;;5032781;28;20266;-61
2022/02/19 05:37:29;;;;;;;0.50;0.50;;;;;;;;;;5032810;28;20410;-62
2022/02/19 05:39:55;;;;;;;0.60;0.60;;;;;;;;;;5032911;28;20177;-62
2022/02/19 05:42:21;;;;;;;0.50;0.50;;;;;;;;;;5032538;28;20175;-62
2022/02/19 05:44:47;;;;;;;0.50;0.50;;;;;;;;;;5032604;28;20575;-60
2022/02/19 05:47:13;;;;;;;0.60;0.60;;;;;;;;;;5032655;28;20502;-61
2022/02/19 05:49:39;;;;;;;0.60;0.60;;;;;;;;;;5032572;28;20429;-61
2022/02/19 05:52:05;;;;;;;0.60;0.60;;;;;;;;;;5032330;28;20551;-62
2022/02/19 05:54:31;;;;;;;0.50;0.50;;;;;;;;;;5032406;28;20526;-60
2022/02/19 05:56:57;;;;;;;0.60;0.60;;;;;;;;;;5032183;28;20273;-62
2022/02/19 05:59:23;;;;;;;0.50;0.50;;;;;;;;;;5032526;28;20417;-62
2022/02/19 06:01:49;;;;;;;0.50;0.50;;;;;;;;;;5032243;28;20184;-62
2022/02/19 06:04:15;;;;;;;0.50;0.50;;;;;;;;;;5031917;28;20529;-60
2022/02/19 06:06:40;;;;;;;0.50;0.50;;;;;;;;;;5032985;28;20418;-60
2022/02/19 06:09:06;;;;;;;0.43;0.43;;;;;;;;;;5032588;28;20469;-61
2022/02/19 06:11:32;;;;;;;0.50;0.50;;;;;;;;;;5031778;28;20460;-60
2022/02/19 06:13:58;;;;;;;0.50;0.50;;;;;;;;;;5032154;28;20437;-60
2022/02/19 06:16:24;;;;;;;0.50;0.50;;;;;;;;;;5036501;28;20403;-60
2022/02/19 06:18:50;;;;;;;0.50;0.50;;;;;;;;;;5036781;28;20538;-61
2022/02/19 06:21:16;;;;;;;0.50;0.50;;;;;;;;;;5031408;28;20508;-61
2022/02/19 06:23:42;;;;;;;0.50;0.50;;;;;;;;;;5030948;28;20445;-61
2022/02/19 06:26:08;;;;;;;0.50;0.50;;;;;;;;;;5014382;28;20418;-61
2022/02/19 06:28:34;;;;;;;0.50;0.50;;;;;;;;;;5024851;28;20424;-62
2022/02/19 06:31:00;;;;;;;0.50;0.50;;;;;;;;;;5030712;28;20458;-61
2022/02/19 06:33:26;;;;;;;0.60;0.60;;;;;;;;;;5031679;28;20189;-60
2022/02/19 06:35:52;;;;;;;0.50;0.50;;;;;;;;;;5017260;28;20501;-61
2022/02/19 06:38:18;;;;;;;0.50;0.50;;;;;;;;;;5029331;28;20815;-61
2022/02/19 06:40:44;;;;;;;0.50;0.50;;;;;;;;;;5031493;28;20399;-62
2022/02/19 06:43:10;;;;;;;0.60;0.60;;;;;;;;;;5025106;28;20285;-61
2022/02/19 06:45:36;;;;;;;0.53;0.53;;;;;;;;;;5027838;28;20682;-61
2022/02/19 06:48:02;;;;;;;0.50;0.50;;;;;;;;;;5016009;28;20927;-62
2022/02/19 06:50:27;;;;;;;0.50;0.50;;;;;;;;;;5026086;28;20909;-61
2022/02/19 06:52:55;;;;;;;0.50;0.50;;;;;;;;;;5025220;28;20421;-61
2022/02/19 06:55:21;;;;;;;0.50;0.50;;;;;;;;;;5020535;28;20857;-62
2022/02/19 06:57:47;;;;;;;0.60;0.60;;;;;;;;;;5025505;28;20172;-62
2022/02/19 07:00:14;;;;;;;0.47;0.47;;;;;;;;;;5019370;28;20280;-62
2022/02/19 07:02:40;;;;;;;0.50;0.50;;;;;;;;;;5014732;28;20189;-62
2022/02/19 07:05:06;;;;;;;0.50;0.50;;;;;;;;;;5011706;28;20288;-62
2022/02/19 07:07:32;;;;;;;0.60;0.60;;;;;;;;;;5011711;28;20250;-61
2022/02/19 07:09:58;;;;;;;0.60;0.60;;;;;;;;;;5015345;28;20265;-62
2022/02/19 07:12:24;;;;;;;0.50;0.50;;;;;;;;;;5022049;28;20295;-62
2022/02/19 07:14:50;;;;;;;0.50;0.50;;;;;;;;;;5028213;28;20465;-61
2022/02/19 07:17:16;;;;;;;0.50;0.50;;;;;;;;;;5031257;28;20596;-61
2022/02/19 07:19:42;;;;;;;0.50;0.50;;;;;;;;;;5031265;28;20221;-62
2022/02/19 07:22:08;;;;;;;0.50;0.50;;;;;;;;;;5031029;28;20413;-61
2022/02/19 07:24:34;;;;;;;0.50;0.50;;;;;;;;;;5032126;28;20458;-62
2022/02/19 07:27:00;;;;;;;0.50;0.50;;;;;;;;;;5031258;28;20408;-61
2022/02/19 07:29:26;;;;;;;0.50;0.50;;;;;;;;;;5031280;28;20932;-61
2022/02/19 07:31:52;;;;;;;0.50;0.50;;;;;;;;;;5030719;28;20201;-61
2022/02/19 07:34:18;;;;;;;0.50;0.50;;;;;;;;;;5031399;28;20417;-61
2022/02/19 07:36:44;;;;;;;0.60;0.60;;;;;;;;;;5031188;28;20398;-61
2022/02/19 07:39:11;;;;;;;0.50;0.50;;;;;;;;;;5031269;28;20667;-62
2022/02/19 07:41:37;;;;;;;0.40;0.40;;;;;;;;;;5029170;28;20602;-61
2022/02/19 07:44:04;;;;;;;0.40;0.40;;;;;;;;;;5013319;28;20219;-61
2022/02/19 07:46:30;;;;;;;0.50;0.50;;;;;;;;;;5032538;28;20222;-61
2022/02/19 07:48:56;;;;;;;0.60;0.60;;;;;;;;;;5034586;28;20217;-62
2022/02/19 07:59:35;;;;;;;0.50;0.50;;;;;;;;;;5033220;28;20238;-61
2022/02/19 08:02:01;;;;;;;0.50;0.50;;;;;;;;;;5034013;28;20173;-62
2022/02/19 08:04:27;;;;;;;0.47;0.47;;;;;;;;;;5034449;28;20431;-61
2022/02/19 08:06:53;;;;;;;0.50;0.50;;;;;;;;;;5034210;28;20184;-61
2022/02/19 08:09:19;;;;;;;0.50;0.50;;;;;;;;;;5034271;28;20179;-62
2022/02/19 08:11:45;;;;;;;0.50;0.50;;;;;;;;;;5028528;28;20473;-61
2022/02/19 08:14:11;;;;;;;0.50;0.50;;;;;;;;;;5019704;28;20496;-62
2022/02/19 08:16:38;;;;;;;0.40;0.40;;;;;;;;;;5023773;28;20423;-62
2022/02/19 08:19:04;;;;;;;0.50;0.50;;;;;;;;;;5029726;28;20429;-62
2022/02/19 08:21:30;;;;;;;0.50;0.50;;;;;;;;;;5022427;28;20181;-60
2022/02/19 08:23:56;;;;;;;0.50;0.50;;;;;;;;;;5021198;28;20822;-61
2022/02/19 08:26:24;;;;;;;0.50;0.50;;;;;;;;;;5014759;28;20431;-62
2022/02/19 08:28:51;;;;;;;0.50;0.50;;;;;;;;;;5014584;28;20419;-62
2022/02/19 08:31:17;;;;;;;0.55;0.55;;;;;;;;;;5014239;28;20196;-60
2022/02/19 08:33:43;;;;;;;0.50;0.50;;;;;;;;;;5015011;28;20194;-61
2022/02/19 08:36:09;;;;;;;0.55;0.55;;;;;;;;;;5014577;28;20212;-62
2022/02/19 08:38:35;;;;;;;0.50;0.50;;;;;;;;;;5014339;28;20718;-62
2022/02/19 08:41:01;;;;;;;0.50;0.50;;;;;;;;;;5016216;28;20596;-59
2022/02/19 08:43:27;;;;;;;0.50;0.50;;;;;;;;;;5015022;28;20494;-60
2022/02/19 08:45:53;;;;;;;0.40;0.40;;;;;;;;;;5014744;28;20423;-61
2022/02/19 08:48:19;;;;;;;0.40;0.40;;;;;;;;;;5018507;28;20500;-61
2022/02/19 08:50:45;;;;;;;0.50;0.50;;;;;;;;;;5023089;28;20457;-60
2022/02/19 08:53:12;;;;;;;0.50;0.50;;;;;;;;;;5024733;28;20495;-60
2022/02/19 08:55:38;;;;;;;0.50;0.50;;;;;;;;;;5031823;28;20175;-60
2022/02/19 08:58:04;;;;;;;0.50;0.50;;;;;;;;;;5033161;28;20168;-62
2022/02/19 09:00:30;;;;;;;0.50;0.50;;;;;;;;;;5033521;28;20184;-62
2022/02/19 09:02:57;;;;;;;0.40;0.40;;;;;;;;;;5033903;28;20773;-62
2022/02/19 09:05:23;;;;;;;0.40;0.40;;;;;;;;;;5027150;28;20196;-61
2022/02/19 09:07:49;;;;;;;0.50;0.50;;;;;;;;;;5022336;28;20228;-62
2022/02/19 09:10:16;;;;;;;0.40;0.40;;;;;;;;;;5024161;28;20537;-62
2022/02/19 09:12:46;;;;;;;0.40;0.40;;;;;;;;;;5023073;28;20204;-62
2022/02/19 09:15:12;;;;;;;0.43;0.43;;;;;;;;;;5013572;28;20189;-62
2022/02/19 09:17:38;;;;;;;0.45;0.45;;;;;;;;;;5014343;28;20169;-62
2022/02/19 09:20:04;;;;;;;0.50;0.50;;;;;;;;;;5017054;28;20177;-60
2022/02/19 09:22:30;;;;;;;0.40;0.40;;;;;;;;;;5023243;28;20490;-59
2022/02/19 09:24:56;;;;;;;0.40;0.40;;;;;;;;;;5032335;28;20317;-62
2022/02/19 09:27:22;;;;;;;0.40;0.40;;;;;;;;;;5023150;28;20429;-62
2022/02/19 09:29:48;;;;;;;0.40;0.40;;;;;;;;;;4998566;28;20495;-61
2022/02/19 09:32:14;;;;;;;0.40;0.40;;;;;;;;;;5018485;28;20481;-60
2022/02/19 09:34:40;;;;;;;0.40;0.40;;;;;;;;;;5021932;28;20493;-61
2022/02/19 09:37:06;;;;;;;0.40;0.40;;;;;;;;;;5021870;28;20407;-63
2022/02/19 09:39:32;;;;;;;0.30;0.30;;;;;;;;;;5022673;28;20412;-62
2022/02/19 09:42:02;;;;;;;0.40;0.40;;;;;;;;;;5031760;28;20420;-61
2022/02/19 09:44:28;;;;;;;0.40;0.40;;;;;;;;;;5029410;28;20470;-62
2022/02/19 09:46:54;;;;;;;0.40;0.40;;;;;;;;;;5032349;28;20431;-62
2022/02/19 09:49:21;;;;;;;0.40;0.40;;;;;;;;;;5031948;28;20382;-62
2022/02/19 09:51:47;;;;;;;0.40;0.40;;;;;;;;;;5031978;28;20441;-62
2022/02/19 09:54:12;;;;;;;0.40;0.40;;;;;;;;;;5027795;28;20440;-62
2022/02/19 09:56:38;;;;;;;0.30;0.30;;;;;;;;;;5012743;28;20384;-60
2022/02/19 09:59:12;;;;;;;0.40;0.40;;;;;;;;;;5012439;28;20408;-61
2022/02/19 10:01:39;;;;;;;0.40;0.40;;;;;;;;;;5019170;28;20773;-61
2022/02/19 10:04:06;;;;;;;0.40;0.40;;;;;;;;;;5029517;28;20521;-61
2022/02/19 10:06:36;;;;;;;0.40;0.40;;;;;;;;;;5015456;28;20416;-60
2022/02/19 10:09:18;;;;;;;0.30;0.30;;;;;;;;;;5015304;28;20792;-60
2022/02/19 10:11:45;;;;;;;0.40;0.40;;;;;;;;;;5012291;28;20471;-62
2022/02/19 10:14:31;;;;;;;0.40;0.40;;;;;;;;;;5012468;28;20510;-62
2022/02/19 10:17:08;;;;;;;0.40;0.40;;;;;;;;;;5015018;28;20467;-63
2022/02/19 10:19:47;;;;;;;0.30;0.30;;;;;;;;;;5012464;28;20487;-63
2022/02/19 10:22:13;;;;;;;0.40;0.40;;;;;;;;;;5024251;28;20430;-60
2022/02/19 10:24:39;;;;;;;0.40;0.40;;;;;;;;;;5031794;28;20905;-60
2022/02/19 10:27:05;;;;;;;0.40;0.40;;;;;;;;;;5032227;28;20412;-60
2022/02/19 10:29:45;;;;;;;0.40;0.40;;;;;;;;;;5022899;28;20953;-62
2022/02/19 10:32:11;;;;;;;0.40;0.40;;;;;;;;;;5023027;28;20466;-60
2022/02/19 10:34:37;;;;;;;0.50;0.50;;;;;;;;;;5021218;28;20705;-60
2022/02/19 10:37:03;;;;;;;0.50;0.50;;;;;;;;;;5019444;28;20487;-59
2022/02/19 10:39:34;;;;;;;0.50;0.50;;;;;;;;;;5019969;28;20399;-58
2022/02/19 10:42:04;;;;;;;0.40;0.40;;;;;;;;;;5020951;28;20185;-61
2022/02/19 10:44:31;;;;;;;0.40;0.40;;;;;;;;;;5019019;28;20212;-63
2022/02/19 10:47:17;;;;;;;0.50;0.50;;;;;;;;;;5015760;28;20189;-62
2022/02/19 10:50:01;;;;;;;0.50;0.50;;;;;;;;;;5012380;28;20192;-62
2022/02/19 10:52:27;;;;;;;0.40;0.40;;;;;;;;;;5012356;28;20288;-62
2022/02/19 10:54:53;;;;;;;0.40;0.40;;;;;;;;;;5011788;28;20229;-62
2022/02/19 10:57:22;;;;;;;0.50;0.50;;;;;;;;;;5011884;28;20415;-62
2022/02/19 10:59:48;;;;;;;0.40;0.40;;;;;;;;;;5011826;28;20407;-63
2022/02/19 11:02:14;;;;;;;0.40;0.40;;;;;;;;;;5011579;28;20553;-60
2022/02/19 11:04:40;;;;;;;0.40;0.40;;;;;;;;;;5011905;28;20435;-62
2022/02/19 11:07:06;;;;;;;0.40;0.40;;;;;;;;;;5011801;28;20854;-63
2022/02/19 11:09:32;;;;;;;0.30;0.30;;;;;;;;;;5011901;28;20263;-64
2022/02/19 11:11:58;;;;;;;0.40;0.40;;;;;;;;;;5011468;28;20456;-62
2022/02/19 11:14:24;;;;;;;0.40;0.40;;;;;;;;;;5014152;28;20428;-60
2022/02/19 11:16:51;;;;;;;0.40;0.40;;;;;;;;;;5012928;28;20796;-57
2022/02/19 11:19:17;;;;;;;0.40;0.40;;;;;;;;;;5012092;28;20415;-59
2022/02/19 11:21:44;;;;;;;0.40;0.40;;;;;;;;;;5013692;28;20413;-57
2022/02/19 11:24:10;;;;;;;0.40;0.40;;;;;;;;;;5015771;28;20554;-60
2022/02/19 11:26:36;;;;;;;0.40;0.40;;;;;;;;;;5016401;28;20394;-60
2022/02/19 11:29:04;;;;;;;0.30;0.30;;;;;;;;;;5016239;28;20466;-60
2022/02/19 11:31:32;;;;;;;0.40;0.40;;;;;;;;;;5015964;28;20837;-61
2022/02/19 11:34:02;;;;;;;0.30;0.30;;;;;;;;;;5015939;28;20977;-62
2022/02/19 11:36:29;;;;;;;0.30;0.30;;;;;;;;;;5015862;28;20444;-61
2022/02/19 11:38:56;;;;;;;0.40;0.40;;;;;;;;;;5025735;28;20424;-63
2022/02/19 11:41:39;;;;;;;0.40;0.40;;;;;;;;;;5035273;28;20390;-62
2022/02/19 11:44:25;;;;;;;0.40;0.40;;;;;;;;;;5035868;28;20491;-63
2022/02/19 11:46:52;;;;;;;0.37;0.37;;;;;;;;;;5034593;28;20447;-61
2022/02/19 11:49:20;;;;;;;0.40;0.40;;;;;;;;;;5035054;28;20430;-62
2022/02/19 11:51:47;;;;;;;0.40;0.40;;;;;;;;;;5034770;28;20467;-63
2022/02/19 11:54:13;;;;;;;0.40;0.40;;;;;;;;;;5035376;28;20429;-63
2022/02/19 11:56:40;;;;;;;0.40;0.40;;;;;;;;;;5035186;28;20906;-62
2022/02/19 11:59:09;;;;;;;0.30;0.30;;;;;;;;;;5034717;28;20379;-64
2022/02/19 12:01:35;;;;;;;0.40;0.40;;;;;;;;;;5034314;28;20854;-63
2022/02/19 12:04:12;;;;;;;0.40;0.40;;;;;;;;;;5034409;28;20444;-62
2022/02/19 12:06:38;;;;;;;0.30;0.30;;;;;;;;;;5034959;28;20424;-62
2022/02/19 12:09:06;;;;;;;0.40;0.40;;;;;;;;;;5034032;28;20481;-64
2022/02/19 12:11:33;;;;;;;0.40;0.40;;;;;;;;;;5016639;28;20466;-62
2022/02/19 12:14:00;;;;;;;0.30;0.30;;;;;;;;;;5033769;28;20438;-63
2022/02/19 12:16:29;;;;;;;0.40;0.40;;;;;;;;;;5044137;28;20917;-60
2022/02/19 12:18:58;;;;;;;0.40;0.40;;;;;;;;;;5053489;28;20500;-61
2022/02/19 12:21:31;;;;;;;0.40;0.40;;;;;;;;;;5053284;28;20183;-61
2022/02/19 12:24:13;;;;;;;0.40;0.40;;;;;;;;;;5054102;28;20442;-62
2022/02/19 12:26:57;;;;;;;0.40;0.40;;;;;;;;;;5054646;28;20181;-61
2022/02/19 12:29:27;;;;;;;0.40;0.40;;;;;;;;;;5054635;28;20439;-61
2022/02/19 12:32:20;;;;;;;0.40;0.40;;;;;;;;;;5053675;28;20223;-63
2022/02/19 12:34:52;;;;;;;0.40;0.40;;;;;;;;;;5045827;28;20722;-62
2022/02/19 12:37:18;;;;;;;0.40;0.40;;;;;;;;;;5053905;28;20230;-62
2022/02/19 12:39:45;;;;;;;0.40;0.40;;;;;;;;;;5042219;28;20180;-58
2022/02/19 12:42:17;;;;;;;0.40;0.40;;;;;;;;;;5030828;28;20184;-60
2022/02/19 12:44:43;;;;;;;0.40;0.40;;;;;;;;;;5033494;28;20200;-62
2022/02/19 12:47:10;;;;;;;0.50;0.50;;;;;;;;;;5033554;28;20188;-60
2022/02/19 12:49:36;;;;;;;0.40;0.40;;;;;;;;;;5027180;28;20180;-63
2022/02/19 12:52:02;;;;;;;0.50;0.50;;;;;;;;;;5025834;28;20209;-61
2022/02/19 12:54:31;;;;;;;0.40;0.40;;;;;;;;;;5020996;28;20436;-63
2022/02/19 12:56:57;;;;;;;0.50;0.50;;;;;;;;;;5011309;28;20234;-63
2022/02/19 12:59:33;;;;;;;0.40;0.40;;;;;;;;;;5023107;28;20211;-61
2022/02/19 13:02:00;;;;;;;0.55;0.55;;;;;;;;;;5022478;28;20260;-61
2022/02/19 13:04:39;;;;;;;0.40;0.40;;;;;;;;;;5023560;28;20232;-61
2022/02/19 13:07:06;;;;;;;0.43;0.43;;;;;;;;;;5023508;28;20177;-62
2022/02/19 13:09:32;;;;;;;0.40;0.40;;;;;;;;;;5023062;28;20192;-61
2022/02/19 13:11:59;;;;;;;0.50;0.50;;;;;;;;;;5023775;28;20695;-61
2022/02/19 13:14:26;;;;;;;0.40;0.40;;;;;;;;;;5022570;28;20421;-61
2022/02/19 13:16:58;;;;;;;0.40;0.40;;;;;;;;;;5022390;28;20246;-62
2022/02/19 13:19:24;;;;;;;0.40;0.40;;;;;;;;;;5022537;28;20182;-61
2022/02/19 13:22:00;;;;;;;0.50;0.50;;;;;;;;;;5022248;28;20177;-63
2022/02/19 13:24:28;;;;;;;0.40;0.40;;;;;;;;;;5038941;23;20494;-64
2022/02/19 13:26:54;;;;;;;0.50;0.50;;;;;;;;;;5003071;28;20668;-64
2022/02/19 13:29:26;;;;;;;0.40;0.40;;;;;;;;;;4993576;28;20171;-63
2022/02/19 13:31:54;;;;;;;0.50;0.50;;;;;;;;;;4993156;28;20468;-63
2022/02/19 13:34:20;;;;;;;0.40;0.40;;;;;;;;;;5015742;28;20291;-63
2022/02/19 13:36:47;;;;;;;0.50;0.50;;;;;;;;;;5024856;28;20201;-63
2022/02/19 13:39:17;;;;;;;0.50;0.50;;;;;;;;;;5034294;28;20405;-64
2022/02/19 13:41:56;;;;;;;0.45;0.45;;;;;;;;;;5027897;28;20173;-66
2022/02/19 13:44:22;;;;;;;0.40;0.40;;;;;;;;;;5024694;28;20196;-64
2022/02/19 13:46:48;;;;;;;0.40;0.40;;;;;;;;;;5035007;28;20188;-64
2022/02/19 13:49:17;;;;;;;0.50;0.50;;;;;;;;;;5017408;28;20227;-64
2022/02/19 13:51:44;;;;;;;0.40;0.40;;;;;;;;;;5034685;28;20291;-63
2022/02/19 13:54:14;;;;;;;0.40;0.40;;;;;;;;;;5016847;28;20242;-64
2022/02/19 13:56:40;;;;;;;0.50;0.50;;;;;;;;;;5035030;28;20688;-62
2022/02/19 13:59:06;;;;;;;0.50;0.50;;;;;;;;;;5037309;28;20185;-63
2022/02/19 14:01:41;;;;;;;0.40;0.40;;;;;;;;;;5033907;28;20172;-63
2022/02/19 14:04:07;;;;;;;0.50;0.50;;;;;;;;;;5032247;28;20196;-63
2022/02/19 14:06:37;;;;;;;0.50;0.50;;;;;;;;;;5032620;28;20259;-63
2022/02/19 14:09:21;;;;;;;0.40;0.40;;;;;;;;;;5032416;28;20216;-63
2022/02/19 14:11:57;;;;;;;0.40;0.40;;;;;;;;;;5031420;28;20216;-63
2022/02/19 14:14:34;;;;;;;0.50;0.50;;;;;;;;;;5029880;28;20201;-63
2022/02/19 14:17:00;;;;;;;0.50;0.50;;;;;;;;;;5032398;28;20662;-63
2022/02/19 14:19:26;;;;;;;0.50;0.50;;;;;;;;;;5031654;28;20200;-63
2022/02/19 14:22:04;;;;;;;0.50;0.50;;;;;;;;;;5031583;28;20445;-64
2022/02/19 14:24:30;;;;;;;0.40;0.40;;;;;;;;;;5030358;28;20462;-63
2022/02/19 14:27:12;;;;;;;0.40;0.40;;;;;;;;;;5018860;28;20185;-63
2022/02/19 14:29:38;;;;;;;0.50;0.50;;;;;;;;;;5020939;28;20786;-63
2022/02/19 14:32:06;;;;;;;0.50;0.50;;;;;;;;;;5010149;28;20205;-63
2022/02/19 14:34:32;;;;;;;0.50;0.50;;;;;;;;;;5010869;28;20212;-63
2022/02/19 14:36:58;;;;;;;0.60;0.60;;;;;;;;;;5030087;28;20595;-63
2022/02/19 14:39:24;;;;;;;0.50;0.50;;;;;;;;;;5032106;28;20193;-63
2022/02/19 14:41:50;;;;;;;0.50;0.50;;;;;;;;;;5030939;28;20287;-63
2022/02/19 14:44:16;;;;;;;0.40;0.40;;;;;;;;;;5032980;28;20196;-64
2022/02/19 14:46:42;;;;;;;0.50;0.50;;;;;;;;;;5033103;28;20258;-64
2022/02/19 14:49:08;;;;;;;0.50;0.50;;;;;;;;;;5032730;28;20176;-63
2022/02/19 14:51:34;;;;;;;0.50;0.50;;;;;;;;;;5032258;28;20895;-64